createdAt,value
2017-02-12T09:12:32.739Z,1018.33
2017-02-12T09:13:42.897Z,1018.41
2017-02-12T09:14:52.182Z,1018.44
2017-02-12T09:16:01.909Z,1018.45
2017-02-12T09:17:12.058Z,1018.43
2017-02-12T09:18:21.385Z,1018.42
2017-02-12T09:19:31.114Z,1018.46
2017-02-12T09:20:41.712Z,1018.49
2017-02-12T09:21:51.880Z,1018.51
2017-02-12T09:23:02.486Z,1018.55
2017-02-12T09:24:12.250Z,1018.56
2017-02-12T09:25:21.528Z,1018.61
2017-02-12T09:26:30.810Z,1018.67
2017-02-12T09:27:40.530Z,1018.65
2017-02-12T09:28:50.694Z,1018.68
2017-02-12T09:30:01.343Z,1018.69
2017-02-12T09:31:11.502Z,1018.68
2017-02-12T09:32:22.102Z,1018.72
2017-02-12T09:33:32.256Z,1018.68
2017-02-12T09:34:41.992Z,1018.71
2017-02-12T09:35:51.770Z,1018.7
2017-02-12T09:37:01.499Z,1018.68
2017-02-12T09:38:12.100Z,1018.71
2017-02-12T09:39:22.267Z,1018.74
2017-02-12T09:40:31.546Z,1018.75
2017-02-12T09:41:40.875Z,1018.76
2017-02-12T09:42:51.481Z,1018.86
2017-02-12T09:44:01.201Z,1018.9
2017-02-12T09:45:10.939Z,1018.93
2017-02-12T09:46:21.538Z,1018.91
2017-02-12T09:47:31.309Z,1018.97
2017-02-12T09:48:41.041Z,1018.95
2017-02-12T09:49:50.755Z,1019.02
2017-02-12T09:51:00.046Z,1018.99
2017-02-12T09:52:09.769Z,1019.04
2017-02-12T09:53:19.098Z,1019.04
2017-02-12T09:54:28.372Z,1019.01
2017-02-12T09:55:38.101Z,1018.99
2017-02-12T09:56:47.391Z,1019.05
2017-02-12T09:57:56.679Z,1018.99
2017-02-12T09:59:06.604Z,1019.01
2017-02-12T10:00:16.767Z,1018.98
2017-02-12T10:01:26.495Z,1019.03
2017-02-12T10:02:36.224Z,1019
2017-02-12T10:03:46.381Z,1019.03
2017-02-12T10:04:56.596Z,1019.02
2017-02-12T10:06:06.796Z,1019.02
2017-02-12T10:07:17.394Z,1019.05
2017-02-12T10:08:26.678Z,1019.04
2017-02-12T10:09:36.402Z,1019.08
2017-02-12T10:10:47.072Z,1019.09
2017-02-12T10:11:57.239Z,1019.13
2017-02-12T10:13:06.963Z,1019.1
2017-02-12T10:14:17.569Z,1019.1
2017-02-12T10:15:27.733Z,1019.13
2017-02-12T10:16:37.515Z,1019.11
2017-02-12T10:17:47.688Z,1019.13
2017-02-12T10:18:57.862Z,1019.14
2017-02-12T10:20:07.146Z,1019.15
2017-02-12T10:21:16.432Z,1019.12
2017-02-12T10:22:25.774Z,1019.17
2017-02-12T10:23:35.933Z,1019.16
2017-02-12T10:24:45.662Z,1019.16
2017-02-12T10:25:55.831Z,1019.15
2017-02-12T10:27:05.568Z,1019.17
2017-02-12T10:28:16.219Z,1019.28
2017-02-12T10:29:25.497Z,1019.28
2017-02-12T10:30:35.657Z,1019.29
2017-02-12T10:31:44.942Z,1019.3
2017-02-12T10:32:55.102Z,1019.32
2017-02-12T10:34:05.320Z,1019.33
2017-02-12T10:35:15.922Z,1019.36
2017-02-12T10:36:25.212Z,1019.37
2017-02-12T10:37:34.932Z,1019.4
2017-02-12T10:38:44.659Z,1019.39
2017-02-12T10:39:54.439Z,1019.43
2017-02-12T10:41:05.043Z,1019.42
2017-02-12T10:42:14.766Z,1019.44
2017-02-12T10:43:24.505Z,1019.46
2017-02-12T10:44:35.556Z,1019.48
2017-02-12T10:45:45.488Z,1019.47
2017-02-12T10:46:55.221Z,1019.51
2017-02-12T10:48:04.942Z,1019.55
2017-02-12T10:49:14.271Z,1019.54
2017-02-12T10:50:24.001Z,1019.59
2017-02-12T10:51:33.778Z,1019.57
2017-02-12T10:52:44.818Z,1019.55
2017-02-12T10:53:54.995Z,1019.58
2017-02-12T10:55:05.163Z,1019.58
2017-02-12T10:56:14.895Z,1019.57
2017-02-12T10:57:24.232Z,1019.57
2017-02-12T10:58:33.961Z,1019.56
2017-02-12T10:59:43.690Z,1019.61
2017-02-12T11:00:53.420Z,1019.58
2017-02-12T11:02:02.720Z,1019.63
2017-02-12T11:03:12.939Z,1019.67
2017-02-12T11:04:23.111Z,1019.67
2017-02-12T11:05:33.312Z,1019.67
2017-02-12T11:06:43.041Z,1019.69
2017-02-12T11:07:52.768Z,1019.66
2017-02-12T11:09:02.992Z,1019.63
2017-02-12T11:10:13.167Z,1019.64
2017-02-12T11:11:22.907Z,1019.67
2017-02-12T11:12:33.509Z,1019.64
2017-02-12T11:13:42.804Z,1019.66
2017-02-12T11:14:53.022Z,1019.61
2017-02-12T11:16:03.191Z,1019.6
2017-02-12T11:17:12.929Z,1019.58
2017-02-12T11:18:22.211Z,1019.58
2017-02-12T11:19:31.939Z,1019.61
2017-02-12T11:20:42.154Z,1019.66
2017-02-12T11:21:52.318Z,1019.59
2017-02-12T11:23:02.496Z,1019.61
2017-02-12T11:24:12.655Z,1019.61
2017-02-12T11:25:21.946Z,1019.61
2017-02-12T11:26:31.289Z,1019.61
2017-02-12T11:27:41.894Z,1019.71
2017-02-12T11:28:52.524Z,1019.68
2017-02-12T11:30:03.581Z,1019.7
2017-02-12T11:31:14.170Z,1019.74
2017-02-12T11:32:24.387Z,1019.69
2017-02-12T11:33:34.545Z,1019.67
2017-02-12T11:34:44.719Z,1019.69
2017-02-12T11:35:54.596Z,1019.65
2017-02-12T11:37:04.334Z,1019.73
2017-02-12T11:38:13.674Z,1019.67
2017-02-12T11:39:23.402Z,1019.73
2017-02-12T11:40:34.008Z,1019.77
2017-02-12T11:41:43.742Z,1019.81
2017-02-12T11:42:53.470Z,1019.83
2017-02-12T11:44:03.319Z,1019.78
2017-02-12T11:45:14.178Z,1019.8
2017-02-12T11:46:24.341Z,1019.78
2017-02-12T11:47:33.625Z,1019.75
2017-02-12T11:48:43.351Z,1019.74
2017-02-12T11:49:53.130Z,1019.71
2017-02-12T11:51:03.746Z,1019.77
2017-02-12T11:52:13.919Z,1019.72
2017-02-12T11:53:24.521Z,1019.73
2017-02-12T11:54:34.683Z,1019.75
2017-02-12T11:55:44.023Z,1019.8
2017-02-12T11:56:54.185Z,1019.82
2017-02-12T11:58:03.481Z,1019.79
2017-02-12T11:59:13.653Z,1019.84
2017-02-12T12:00:23.384Z,1019.86
2017-02-12T12:01:33.166Z,1019.84
2017-02-12T12:02:42.891Z,1019.83
2017-02-12T12:03:52.188Z,1019.83
2017-02-12T12:05:02.797Z,1019.81
2017-02-12T12:06:12.530Z,1019.79
2017-02-12T12:07:22.755Z,1019.76
2017-02-12T12:08:33.916Z,1019.71
2017-02-12T12:09:48.086Z,1019.7
2017-02-12T12:10:57.823Z,1019.71
2017-02-12T12:12:08.428Z,1019.72
2017-02-12T12:13:19.079Z,1019.72
2017-02-12T12:14:29.248Z,1019.67
2017-02-12T12:15:39.061Z,1019.75
2017-02-12T12:16:48.794Z,1019.7
2017-02-12T12:17:58.083Z,1019.77
2017-02-12T12:19:07.869Z,1019.82
2017-02-12T12:20:17.601Z,1019.83
2017-02-12T12:21:27.333Z,1019.77
2017-02-12T12:22:37.500Z,1019.78
2017-02-12T12:23:48.105Z,1019.82
2017-02-12T12:24:58.761Z,1019.83
2017-02-12T12:26:08.494Z,1019.84
2017-02-12T12:27:18.671Z,1019.85
2017-02-12T12:28:28.839Z,1019.88
2017-02-12T12:29:38.558Z,1019.86
2017-02-12T12:30:48.789Z,1019.87
2017-02-12T12:31:59.418Z,1019.84
2017-02-12T12:33:09.145Z,1019.89
2017-02-12T12:34:20.183Z,1019.85
2017-02-12T12:35:29.904Z,1019.85
2017-02-12T12:36:39.685Z,1019.86
2017-02-12T12:37:50.279Z,1019.89
2017-02-12T12:38:59.572Z,1019.89
2017-02-12T12:40:09.745Z,1019.91
2017-02-12T12:41:19.473Z,1019.89
2017-02-12T12:42:29.251Z,1019.87
2017-02-12T12:43:39.418Z,1019.87
2017-02-12T12:44:48.709Z,1019.83
2017-02-12T12:45:59.321Z,1019.75
2017-02-12T12:47:09.053Z,1019.8
2017-02-12T12:48:19.377Z,1019.82
2017-02-12T12:49:29.103Z,1019.84
2017-02-12T12:50:38.831Z,1019.78
2017-02-12T12:51:48.999Z,1019.86
2017-02-12T12:52:59.163Z,1019.81
2017-02-12T12:54:09.531Z,1019.83
2017-02-12T12:55:19.690Z,1019.81
2017-02-12T12:56:28.983Z,1019.81
2017-02-12T12:57:38.703Z,1019.81
2017-02-12T12:58:49.306Z,1019.8
2017-02-12T12:59:58.649Z,1019.83
2017-02-12T13:01:08.811Z,1019.78
2017-02-12T13:02:18.974Z,1019.76
2017-02-12T13:03:29.568Z,1019.75
2017-02-12T13:04:39.746Z,1019.78
2017-02-12T13:05:49.959Z,1019.75
2017-02-12T13:06:59.681Z,1019.73
2017-02-12T13:08:08.965Z,1019.73
2017-02-12T13:09:18.696Z,1019.72
2017-02-12T13:10:27.983Z,1019.67
2017-02-12T13:11:37.752Z,1019.74
2017-02-12T13:12:47.940Z,1019.66
2017-02-12T13:13:58.113Z,1019.66
2017-02-12T13:15:07.844Z,1019.62
2017-02-12T13:16:17.574Z,1019.63
2017-02-12T13:17:26.919Z,1019.57
2017-02-12T13:18:36.648Z,1019.57
2017-02-12T13:19:46.814Z,1019.55
2017-02-12T13:20:56.111Z,1019.62
2017-02-12T13:22:06.287Z,1019.52
2017-02-12T13:23:16.501Z,1019.48
2017-02-12T13:24:26.230Z,1019.48
2017-02-12T13:25:35.527Z,1019.51
2017-02-12T13:26:45.262Z,1019.4
2017-02-12T13:27:54.989Z,1019.4
2017-02-12T13:29:04.338Z,1019.47
2017-02-12T13:30:14.511Z,1019.47
2017-02-12T13:31:25.112Z,1019.47
2017-02-12T13:32:35.286Z,1019.5
2017-02-12T13:33:45.016Z,1019.51
2017-02-12T13:34:55.668Z,1019.51
2017-02-12T13:36:07.165Z,1019.57
2017-02-12T13:37:17.774Z,1019.57
2017-02-12T13:38:28.824Z,1019.52
2017-02-12T13:39:38.149Z,1019.54
2017-02-12T13:40:47.926Z,1019.53
2017-02-12T13:41:57.653Z,1019.53
2017-02-12T13:43:06.940Z,1019.56
2017-02-12T13:44:16.670Z,1019.51
2017-02-12T13:45:27.264Z,1019.5
2017-02-12T13:46:36.606Z,1019.53
2017-02-12T13:47:46.325Z,1019.54
2017-02-12T13:48:55.606Z,1019.57
2017-02-12T13:50:04.911Z,1019.53
2017-02-12T13:51:15.504Z,1019.63
2017-02-12T13:52:25.289Z,1019.63
2017-02-12T13:53:35.026Z,1019.64
2017-02-12T13:54:45.628Z,1019.68
2017-02-12T13:55:55.361Z,1019.64
2017-02-12T13:57:05.534Z,1019.61
2017-02-12T13:58:15.909Z,1019.58
2017-02-12T13:59:25.205Z,1019.59
2017-02-12T14:00:34.934Z,1019.59
2017-02-12T14:01:45.108Z,1019.64
2017-02-12T14:02:54.834Z,1019.62
2017-02-12T14:04:04.174Z,1019.62
2017-02-12T14:05:13.466Z,1019.67
2017-02-12T14:06:24.081Z,1019.7
2017-02-12T14:07:34.257Z,1019.66
2017-02-12T14:08:44.422Z,1019.69
2017-02-12T14:09:54.241Z,1019.73
2017-02-12T14:11:03.524Z,1019.72
2017-02-12T14:12:13.246Z,1019.76
2017-02-12T14:13:23.851Z,1019.71
2017-02-12T14:14:33.575Z,1019.73
2017-02-12T14:15:43.790Z,1019.79
2017-02-12T14:16:53.526Z,1019.81
2017-02-12T14:18:03.248Z,1019.86
2017-02-12T14:19:12.993Z,1019.76
2017-02-12T14:20:22.738Z,1019.72
2017-02-12T14:21:32.507Z,1019.77
2017-02-12T14:22:42.234Z,1019.75
2017-02-12T14:23:51.523Z,1019.71
2017-02-12T14:25:01.295Z,1019.71
2017-02-12T14:26:11.472Z,1019.73
2017-02-12T14:27:21.705Z,1019.72
2017-02-12T14:28:31.436Z,1019.68
2017-02-12T14:29:41.181Z,1019.65
2017-02-12T14:30:51.016Z,1019.7
2017-02-12T14:32:00.741Z,1019.69
2017-02-12T14:33:10.519Z,1019.77
2017-02-12T14:34:20.291Z,1019.73
2017-02-12T14:35:30.022Z,1019.75
2017-02-12T14:36:40.200Z,1019.77
2017-02-12T14:37:50.370Z,1019.8
2017-02-12T14:39:00.152Z,1019.79
2017-02-12T14:40:10.767Z,1019.77
2017-02-12T14:41:20.047Z,1019.76
2017-02-12T14:42:29.332Z,1019.76
2017-02-12T14:43:39.509Z,1019.79
2017-02-12T14:44:50.175Z,1019.79
2017-02-12T14:45:59.901Z,1019.84
2017-02-12T14:47:09.637Z,1019.81
2017-02-12T14:48:19.376Z,1019.87
2017-02-12T14:49:29.551Z,1019.86
2017-02-12T14:50:38.896Z,1019.88
2017-02-12T14:51:49.062Z,1019.86
2017-02-12T14:52:58.796Z,1019.85
2017-02-12T14:54:08.949Z,1019.84
2017-02-12T14:55:18.686Z,1019.83
2017-02-12T14:56:28.474Z,1019.82
2017-02-12T14:57:38.647Z,1019.82
2017-02-12T14:58:48.825Z,1019.8
2017-02-12T14:59:58.113Z,1019.85
2017-02-12T15:01:08.728Z,1019.92
2017-02-12T15:02:18.956Z,1019.89
2017-02-12T15:03:29.558Z,1019.94
2017-02-12T15:04:39.731Z,1019.94
2017-02-12T15:05:49.455Z,1019.92
2017-02-12T15:07:00.060Z,1019.95
2017-02-12T15:08:10.706Z,1019.92
2017-02-12T15:09:20.860Z,1019.96
2017-02-12T15:10:30.148Z,1019.99
2017-02-12T15:11:40.306Z,1020.05
2017-02-12T15:12:50.477Z,1020.07
2017-02-12T15:14:00.367Z,1020.07
2017-02-12T15:15:10.530Z,1020.11
2017-02-12T15:16:19.816Z,1020.09
2017-02-12T15:17:29.120Z,1020.11
2017-02-12T15:18:39.729Z,1020.13
2017-02-12T15:19:49.501Z,1020.08
2017-02-12T15:20:59.228Z,1020.09
2017-02-12T15:22:08.968Z,1020.09
2017-02-12T15:23:19.145Z,1020.1
2017-02-12T15:24:29.314Z,1020.05
2017-02-12T15:25:40.241Z,1020.02
2017-02-12T15:26:50.413Z,1020.01
2017-02-12T15:28:00.143Z,1020.02
2017-02-12T15:29:09.435Z,1019.98
2017-02-12T15:30:19.597Z,1020
2017-02-12T15:31:29.085Z,1020.06
2017-02-12T15:32:38.807Z,1020.01
2017-02-12T15:33:48.581Z,1020.06
2017-02-12T15:34:57.873Z,1019.98
2017-02-12T15:36:08.490Z,1019.99
2017-02-12T15:37:18.735Z,1019.99
2017-02-12T15:38:28.904Z,1020.06
2017-02-12T15:39:39.129Z,1020.04
2017-02-12T15:40:48.858Z,1020.06
2017-02-12T15:41:59.512Z,1020.12
2017-02-12T15:43:09.675Z,1020.13
2017-02-12T15:44:18.973Z,1020.05
2017-02-12T15:45:28.755Z,1020.06
2017-02-12T15:46:38.932Z,1020.06
2017-02-12T15:47:48.221Z,1020.09
2017-02-12T15:48:58.404Z,1020.15
2017-02-12T15:50:08.128Z,1020.16
2017-02-12T15:51:17.918Z,1020.15
2017-02-12T15:52:28.072Z,1020.13
2017-02-12T15:53:37.361Z,1020.16
2017-02-12T15:54:46.648Z,1020.18
2017-02-12T15:55:56.390Z,1020.19
2017-02-12T15:57:06.607Z,1020.18
2017-02-12T15:58:17.218Z,1020.2
2017-02-12T15:59:26.956Z,1020.24
2017-02-12T16:00:37.131Z,1020.23
2017-02-12T16:01:47.335Z,1020.24
2017-02-12T16:02:57.569Z,1020.29
2017-02-12T16:04:08.166Z,1020.27
2017-02-12T16:05:17.452Z,1020.27
2017-02-12T16:06:27.624Z,1020.26
2017-02-12T16:07:37.797Z,1020.25
2017-02-12T16:08:48.174Z,1020.27
2017-02-12T16:09:58.780Z,1020.32
2017-02-12T16:11:09.401Z,1020.22
2017-02-12T16:12:19.578Z,1020.34
2017-02-12T16:13:29.299Z,1020.36
2017-02-12T16:14:39.078Z,1020.39
2017-02-12T16:15:48.810Z,1020.4
2017-02-12T16:16:58.980Z,1020.46
2017-02-12T16:18:08.757Z,1020.45
2017-02-12T16:19:19.378Z,1020.53
2017-02-12T16:20:29.736Z,1020.44
2017-02-12T16:21:39.028Z,1020.44
2017-02-12T16:22:49.205Z,1020.47
2017-02-12T16:23:59.816Z,1020.48
2017-02-12T16:25:09.995Z,1020.45
2017-02-12T16:26:20.544Z,1020.46
2017-02-12T16:27:30.307Z,1020.44
2017-02-12T16:28:40.950Z,1020.47
2017-02-12T16:29:51.137Z,1020.48
2017-02-12T16:31:00.921Z,1020.55
2017-02-12T16:32:11.582Z,1020.55
2017-02-12T16:33:22.219Z,1020.59
2017-02-12T16:34:32.839Z,1020.56
2017-02-12T16:35:42.577Z,1020.57
2017-02-12T16:36:53.199Z,1020.62
2017-02-12T16:38:03.862Z,1020.64
2017-02-12T16:39:14.025Z,1020.68
2017-02-12T16:40:25.073Z,1020.66
2017-02-12T16:41:34.802Z,1020.69
2017-02-12T16:42:44.992Z,1020.68
2017-02-12T16:43:54.775Z,1020.75
2017-02-12T16:45:04.063Z,1020.81
2017-02-12T16:46:13.792Z,1020.77
2017-02-12T16:47:23.520Z,1020.87
2017-02-12T16:48:32.807Z,1020.91
2017-02-12T16:49:43.901Z,1020.89
2017-02-12T16:50:54.074Z,1020.88
2017-02-12T16:52:03.802Z,1020.86
2017-02-12T16:53:14.405Z,1020.85
2017-02-12T16:54:24.581Z,1020.91
2017-02-12T16:55:33.926Z,1020.95
2017-02-12T16:56:43.655Z,1020.97
2017-02-12T16:57:53.396Z,1021.04
2017-02-12T16:59:03.221Z,1021.06
2017-02-12T17:00:15.102Z,1021.04
2017-02-12T17:01:26.524Z,1021.06
2017-02-12T17:02:38.793Z,1021.03
2017-02-12T17:03:49.929Z,1021.1
2017-02-12T17:05:01.907Z,1021.07
2017-02-12T17:06:14.569Z,1021.07
2017-02-12T17:07:25.306Z,1021.1
2017-02-12T17:08:38.100Z,1021.08
2017-02-12T17:09:50.781Z,1021.09
2017-02-12T17:11:02.201Z,1021.11
2017-02-12T17:12:13.439Z,1021.07
2017-02-12T17:13:24.033Z,1021.1
2017-02-12T17:14:35.744Z,1021.1
2017-02-12T17:15:47.538Z,1021.14
2017-02-12T17:16:59.015Z,1021.17
2017-02-12T17:18:09.176Z,1021.17
2017-02-12T17:19:19.399Z,1021.14
2017-02-12T17:20:28.912Z,1021.17
2017-02-12T17:21:41.764Z,1021.2
2017-02-12T17:22:53.600Z,1021.12
2017-02-12T17:24:06.046Z,1021.15
2017-02-12T17:25:18.879Z,1021.17
2017-02-12T17:26:30.200Z,1021.16
2017-02-12T17:27:42.186Z,1021.19
2017-02-12T17:28:54.235Z,1021.19
2017-02-12T17:30:05.486Z,1021.18
2017-02-12T17:31:15.559Z,1021.19
2017-02-12T17:32:28.270Z,1021.13
2017-02-12T17:33:41.527Z,1021.13
2017-02-12T17:34:52.985Z,1021.18
2017-02-12T17:36:04.098Z,1021.18
2017-02-12T17:37:15.851Z,1021.23
2017-02-12T17:38:26.816Z,1021.2
2017-02-12T17:39:36.989Z,1021.23
2017-02-12T17:40:47.219Z,1021.22
2017-02-12T17:41:57.395Z,1021.18
2017-02-12T17:43:07.645Z,1021.19
2017-02-12T17:44:18.259Z,1021.2
2017-02-12T17:45:29.313Z,1021.19
2017-02-12T17:46:38.662Z,1021.13
2017-02-12T17:47:48.842Z,1021.18
2017-02-12T17:48:59.027Z,1021.15
2017-02-12T17:50:09.641Z,1021.16
2017-02-12T17:51:19.854Z,1021.18
2017-02-12T17:52:30.337Z,1021.18
2017-02-12T17:53:42.384Z,1021.19
2017-02-12T17:54:53.534Z,1021.18
2017-02-12T17:56:04.403Z,1021.17
2017-02-12T17:57:16.082Z,1021.15
2017-02-12T17:58:27.272Z,1021.12
2017-02-12T17:59:39.729Z,1021.09
2017-02-12T18:00:52.167Z,1021.04
2017-02-12T18:02:05.280Z,1021.08
2017-02-12T18:03:15.481Z,1021.11
2017-02-12T18:04:25.846Z,1021.06
2017-02-12T18:05:38.568Z,1021.11
2017-02-12T18:06:49.925Z,1021.09
2017-02-12T18:08:00.370Z,1021.18
2017-02-12T18:09:10.545Z,1021.11
2017-02-12T18:10:20.889Z,1021.13
2017-02-12T18:11:31.822Z,1021.13
2017-02-12T18:12:43.415Z,1021.14
2017-02-12T18:13:55.033Z,1021.15
2017-02-12T18:15:06.298Z,1021.14
2017-02-12T18:16:18.215Z,1021.11
2017-02-12T18:17:29.708Z,1021.11
2017-02-12T18:18:41.675Z,1021.11
2017-02-12T18:19:52.591Z,1021.05
2017-02-12T18:21:04.377Z,1021.08
2017-02-12T18:22:16.289Z,1021.1
2017-02-12T18:23:27.466Z,1021.1
2017-02-12T18:24:39.527Z,1021.09
2017-02-12T18:25:50.568Z,1021.11
2017-02-12T18:27:04.783Z,1021.08
2017-02-12T18:28:15.488Z,1021.01
2017-02-12T18:29:24.848Z,1020.99
2017-02-12T18:30:35.077Z,1020.95
2017-02-12T18:31:46.526Z,1020.93
2017-02-12T18:32:57.787Z,1020.86
2017-02-12T18:34:09.805Z,1020.86
2017-02-12T18:35:21.007Z,1020.92
2017-02-12T18:36:31.180Z,1020.95
2017-02-12T18:37:43.193Z,1020.94
2017-02-12T18:38:53.838Z,1020.94
2017-02-12T18:40:06.027Z,1020.91
2017-02-12T18:41:18.561Z,1020.93
2017-02-12T18:42:30.897Z,1020.91
2017-02-12T18:43:41.727Z,1020.92
2017-02-12T18:44:52.048Z,1020.91
2017-02-12T18:46:02.189Z,1020.97
2017-02-12T18:47:14.242Z,1020.94
2017-02-12T18:48:24.669Z,1020.89
2017-02-12T18:49:34.989Z,1020.9
2017-02-12T18:50:44.754Z,1020.92
2017-02-12T18:51:56.675Z,1020.89
2017-02-12T18:53:10.312Z,1020.89
2017-02-12T18:54:20.954Z,1020.9
2017-02-12T18:55:31.341Z,1020.91
2017-02-12T18:56:41.312Z,1021
2017-02-12T18:57:51.753Z,1021.04
2017-02-12T18:59:01.247Z,1021.07
2017-02-12T19:00:12.576Z,1021.06
2017-02-12T19:01:23.149Z,1021.12
2017-02-12T19:02:35.235Z,1021.11
2017-02-12T19:03:46.315Z,1021.14
2017-02-12T19:04:57.637Z,1021.15
2017-02-12T19:06:08.054Z,1021.12
2017-02-12T19:07:18.939Z,1021.18
2017-02-12T19:08:29.473Z,1021.19
2017-02-12T19:09:40.250Z,1021.19
2017-02-12T19:10:50.449Z,1021.28
2017-02-12T19:12:00.887Z,1021.28
2017-02-12T19:13:11.825Z,1021.31
2017-02-12T19:14:23.109Z,1021.32
2017-02-12T19:15:33.800Z,1021.34
2017-02-12T19:16:43.393Z,1021.33
2017-02-12T19:17:54.470Z,1021.31
2017-02-12T19:19:05.771Z,1021.27
2017-02-12T19:20:15.932Z,1021.29
2017-02-12T19:21:25.534Z,1021.29
2017-02-12T19:22:35.633Z,1021.28
2017-02-12T19:23:45.689Z,1021.32
2017-02-12T19:24:56.685Z,1021.35
2017-02-12T19:26:06.459Z,1021.35
2017-02-12T19:27:17.916Z,1021.4
2017-02-12T19:28:28.856Z,1021.39
2017-02-12T19:29:38.871Z,1021.43
2017-02-12T19:30:48.784Z,1021.47
2017-02-12T19:31:59.021Z,1021.46
2017-02-12T19:33:09.062Z,1021.48
2017-02-12T19:34:20.125Z,1021.47
2017-02-12T19:35:31.377Z,1021.44
2017-02-12T19:36:42.323Z,1021.46
2017-02-12T19:37:53.131Z,1021.53
2017-02-12T19:39:03.420Z,1021.52
2017-02-12T19:40:13.546Z,1021.56
2017-02-12T19:41:24.062Z,1021.56
2017-02-12T19:42:35.283Z,1021.56
2017-02-12T19:43:45.969Z,1021.58
2017-02-12T19:44:56.255Z,1021.58
2017-02-12T19:46:06.711Z,1021.57
2017-02-12T19:47:17.038Z,1021.58
2017-02-12T19:48:27.743Z,1021.64
2017-02-12T19:49:38.402Z,1021.66
2017-02-12T19:50:49.196Z,1021.69
2017-02-12T19:52:01.375Z,1021.72
2017-02-12T19:53:11.542Z,1021.69
2017-02-12T19:54:23.771Z,1021.69
2017-02-12T19:55:34.172Z,1021.68
2017-02-12T19:56:44.954Z,1021.74
2017-02-12T19:57:55.664Z,1021.72
2017-02-12T19:59:06.728Z,1021.78
2017-02-12T20:00:19.985Z,1021.76
2017-02-12T20:01:31.447Z,1021.8
2017-02-12T20:02:44.820Z,1021.84
2017-02-12T20:03:56.377Z,1021.87
2017-02-12T20:05:06.615Z,1021.88
2017-02-12T20:06:17.535Z,1021.92
2017-02-12T20:07:29.817Z,1021.85
2017-02-12T20:08:43.090Z,1021.85
2017-02-12T20:09:56.622Z,1021.82
2017-02-12T20:11:09.088Z,1021.81
2017-02-12T20:12:20.954Z,1021.83
2017-02-12T20:13:33.613Z,1021.85
2017-02-12T20:14:45.164Z,1021.84
2017-02-12T20:15:58.691Z,1021.81
2017-02-12T20:17:11.102Z,1021.77
2017-02-12T20:18:23.416Z,1021.71
2017-02-12T20:19:35.206Z,1021.67
2017-02-12T20:20:47.922Z,1021.66
2017-02-12T20:21:58.895Z,1021.63
2017-02-12T20:23:10.628Z,1021.65
2017-02-12T20:24:22.581Z,1021.63
2017-02-12T20:25:34.915Z,1021.6
2017-02-12T20:26:48.504Z,1021.61
2017-02-12T20:27:59.883Z,1021.66
2017-02-12T20:29:11.302Z,1021.66
2017-02-12T20:30:23.760Z,1021.68
2017-02-12T20:31:35.226Z,1021.64
2017-02-12T20:32:47.178Z,1021.56
2017-02-12T20:33:58.067Z,1021.55
2017-02-12T20:35:10.544Z,1021.53
2017-02-12T20:36:23.765Z,1021.55
2017-02-12T20:37:35.191Z,1021.54
2017-02-12T20:38:47.164Z,1021.59
2017-02-12T20:39:59.665Z,1021.64
2017-02-12T20:41:12.150Z,1021.67
2017-02-12T20:42:23.216Z,1021.62
2017-02-12T20:43:35.121Z,1021.67
2017-02-12T20:44:47.109Z,1021.63
2017-02-12T20:45:59.063Z,1021.59
2017-02-12T20:47:10.488Z,1021.56
2017-02-12T20:48:21.521Z,1021.57
2017-02-12T20:49:33.487Z,1021.51
2017-02-12T20:50:45.426Z,1021.51
2017-02-12T20:51:56.281Z,1021.52
2017-02-12T20:53:08.246Z,1021.55
2017-02-12T20:54:19.715Z,1021.49
2017-02-12T20:55:30.543Z,1021.46
2017-02-12T20:56:42.451Z,1021.44
2017-02-12T20:57:54.295Z,1021.44
2017-02-12T20:59:06.108Z,1021.49
2017-02-12T21:00:17.353Z,1021.45
2017-02-12T21:01:29.427Z,1021.48
2017-02-12T21:02:40.100Z,1021.48
2017-02-12T21:03:49.625Z,1021.49
2017-02-12T21:05:00.314Z,1021.48
2017-02-12T21:06:11.006Z,1021.47
2017-02-12T21:07:22.100Z,1021.44
2017-02-12T21:08:32.766Z,1021.46
2017-02-12T21:09:42.561Z,1021.5
2017-02-12T21:10:52.764Z,1021.44
2017-02-12T21:12:02.728Z,1021.45
2017-02-12T21:13:12.938Z,1021.49
2017-02-12T21:14:22.266Z,1021.42
2017-02-12T21:15:32.017Z,1021.47
2017-02-12T21:16:42.230Z,1021.48
2017-02-12T21:17:52.044Z,1021.46
2017-02-12T21:19:02.240Z,1021.52
2017-02-12T21:20:11.981Z,1021.56
2017-02-12T21:21:21.318Z,1021.59
2017-02-12T21:22:31.080Z,1021.65
2017-02-12T21:23:40.874Z,1021.68
2017-02-12T21:24:50.206Z,1021.63
2017-02-12T21:25:59.979Z,1021.7
2017-02-12T21:27:10.610Z,1021.71
2017-02-12T21:28:20.834Z,1021.66
2017-02-12T21:29:30.211Z,1021.68
2017-02-12T21:30:40.408Z,1021.66
2017-02-12T21:31:50.591Z,1021.65
2017-02-12T21:32:59.915Z,1021.65
2017-02-12T21:34:09.228Z,1021.67
2017-02-12T21:35:19.050Z,1021.66
2017-02-12T21:36:28.803Z,1021.63
2017-02-12T21:37:38.120Z,1021.62
2017-02-12T21:38:47.880Z,1021.58
2017-02-12T21:39:58.069Z,1021.58
2017-02-12T21:41:08.330Z,1021.6
2017-02-12T21:42:17.663Z,1021.58
2017-02-12T21:43:27.436Z,1021.6
2017-02-12T21:44:37.247Z,1021.59
2017-02-12T21:45:47.019Z,1021.6
2017-02-12T21:46:57.260Z,1021.59
2017-02-12T21:48:07.025Z,1021.62
2017-02-12T21:49:16.776Z,1021.63
2017-02-12T21:50:26.532Z,1021.6
2017-02-12T21:51:36.302Z,1021.57
2017-02-12T21:52:47.017Z,1021.56
2017-02-12T21:53:56.808Z,1021.54
2017-02-12T21:55:06.566Z,1021.56
2017-02-12T21:56:16.313Z,1021.55
2017-02-12T21:57:26.531Z,1021.6
2017-02-12T21:58:35.885Z,1021.58
2017-02-12T21:59:45.651Z,1021.64
2017-02-12T22:00:55.431Z,1021.59
2017-02-12T22:02:05.200Z,1021.62
2017-02-12T22:03:14.958Z,1021.61
2017-02-12T22:04:24.331Z,1021.61
2017-02-12T22:05:34.527Z,1021.62
2017-02-12T22:06:44.328Z,1021.63
2017-02-12T22:07:54.965Z,1021.6
2017-02-12T22:09:04.267Z,1021.65
2017-02-12T22:10:13.647Z,1021.62
2017-02-12T22:11:24.282Z,1021.58
2017-02-12T22:12:34.039Z,1021.56
2017-02-12T22:13:43.794Z,1021.57
2017-02-12T22:14:53.128Z,1021.56
2017-02-12T22:16:03.421Z,1021.62
2017-02-12T22:17:13.181Z,1021.61
2017-02-12T22:18:23.363Z,1021.63
2017-02-12T22:19:33.565Z,1021.64
2017-02-12T22:20:43.318Z,1021.7
2017-02-12T22:21:53.123Z,1021.63
2017-02-12T22:23:02.872Z,1021.65
2017-02-12T22:24:12.646Z,1021.63
2017-02-12T22:25:22.404Z,1021.61
2017-02-12T22:26:31.712Z,1021.62
2017-02-12T22:27:41.954Z,1021.65
2017-02-12T22:28:51.265Z,1021.65
2017-02-12T22:30:01.013Z,1021.65
2017-02-12T22:31:10.760Z,1021.71
2017-02-12T22:32:20.943Z,1021.66
2017-02-12T22:33:30.311Z,1021.65
2017-02-12T22:34:40.520Z,1021.66
2017-02-12T22:35:50.278Z,1021.69
2017-02-12T22:37:00.490Z,1021.7
2017-02-12T22:38:10.267Z,1021.7
2017-02-12T22:39:20.069Z,1021.71
2017-02-12T22:40:30.262Z,1021.74
2017-02-12T22:41:41.765Z,1021.75
2017-02-12T22:42:51.086Z,1021.78
2017-02-12T22:44:00.855Z,1021.79
2017-02-12T22:45:10.658Z,1021.79
2017-02-12T22:46:20.876Z,1021.76
2017-02-12T22:47:30.640Z,1021.77
2017-02-12T22:48:40.402Z,1021.75
2017-02-12T22:49:50.595Z,1021.74
2017-02-12T22:50:59.974Z,1021.77
2017-02-12T22:52:09.294Z,1021.77
2017-02-12T22:53:19.049Z,1021.75
2017-02-12T22:54:28.794Z,1021.75
2017-02-12T22:55:39.420Z,1021.74
2017-02-12T22:56:49.278Z,1021.77
2017-02-12T22:57:59.017Z,1021.79
2017-02-12T22:59:08.328Z,1021.78
2017-02-12T23:00:18.090Z,1021.82
2017-02-12T23:01:28.296Z,1021.81
2017-02-12T23:02:38.542Z,1021.79
2017-02-12T23:03:48.310Z,1021.86
2017-02-12T23:04:58.068Z,1021.86
2017-02-12T23:06:07.408Z,1021.87
2017-02-12T23:07:18.023Z,1021.9
2017-02-12T23:08:27.387Z,1021.93
2017-02-12T23:09:37.579Z,1021.91
2017-02-12T23:10:47.356Z,1021.93
2017-02-12T23:11:57.109Z,1021.96
2017-02-12T23:13:07.775Z,1022.01
2017-02-12T23:14:18.478Z,1021.98
2017-02-12T23:15:29.126Z,1022
2017-02-12T23:16:38.890Z,1022
2017-02-12T23:17:48.654Z,1021.97
2017-02-12T23:18:58.407Z,1021.97
2017-02-12T23:20:08.208Z,1021.92
2017-02-12T23:21:17.527Z,1021.94
2017-02-12T23:22:27.285Z,1021.92
2017-02-12T23:23:36.594Z,1021.92
2017-02-12T23:24:45.924Z,1021.91